createdAt,value
2019-05-11T00:00:44.299Z,32.63
2019-05-11T00:03:12.797Z,38.08
2019-05-11T00:05:41.285Z,40.40
2019-05-11T00:08:09.825Z,39.30
2019-05-11T00:10:38.334Z,46.55
2019-05-11T00:13:06.847Z,44.63
2019-05-11T00:15:35.642Z,47.88
2019-05-11T00:18:05.002Z,41.92
2019-05-11T00:20:33.523Z,39.98
2019-05-11T00:23:02.039Z,37.80
2019-05-11T00:25:30.564Z,42.80
2019-05-11T00:27:59.106Z,36.68
2019-05-11T00:30:27.605Z,34.80
2019-05-11T00:32:56.120Z,33.70
2019-05-11T00:35:24.592Z,33.98
2019-05-11T00:37:53.159Z,29.52
2019-05-11T00:40:21.790Z,27.73
2019-05-11T00:42:50.302Z,23.95
2019-05-11T00:45:19.085Z,22.07
2019-05-11T00:47:47.571Z,24.12
2019-05-11T00:50:16.238Z,20.80
2019-05-11T00:52:44.785Z,21.20
2019-05-11T00:55:13.470Z,21.50
2019-05-11T00:57:42.067Z,21.35
2019-05-11T01:00:11.193Z,23.38
2019-05-11T01:02:39.681Z,25.70
2019-05-11T01:05:09.025Z,27.73
2019-05-11T01:07:37.559Z,24.55
2019-05-11T01:10:21.811Z,20.37
2019-05-11T01:12:38.130Z,26.12
2019-05-11T01:15:06.988Z,23.42
2019-05-11T01:17:35.479Z,24.70
2019-05-11T01:20:06.829Z,21.05
2019-05-11T01:22:35.312Z,20.90
2019-05-11T01:25:04.671Z,18.23
2019-05-11T01:27:33.154Z,14.53
2019-05-11T01:30:01.668Z,13.98
2019-05-11T01:32:30.151Z,14.75
2019-05-11T01:34:58.844Z,13.22
2019-05-11T01:37:27.354Z,18.55
2019-05-11T01:39:55.846Z,15.40
2019-05-11T01:42:24.361Z,14.70
2019-05-11T01:44:52.854Z,16.85
2019-05-11T01:47:21.357Z,19.33
2019-05-11T01:49:49.835Z,21.65
2019-05-11T01:52:18.345Z,23.40
2019-05-11T01:54:46.816Z,24.60
2019-05-11T01:57:15.406Z,26.25
2019-05-11T01:59:43.883Z,28.07
2019-05-11T02:02:12.393Z,25.45
2019-05-11T02:04:41.206Z,28.62
2019-05-11T02:07:09.771Z,37.32
2019-05-11T02:09:38.265Z,35.40
2019-05-11T02:12:06.743Z,33.97
2019-05-11T02:14:35.248Z,32.67
2019-05-11T02:17:04.756Z,35.52
2019-05-11T02:19:33.265Z,35.20
2019-05-11T02:22:01.742Z,33.83
2019-05-11T02:24:30.378Z,35.00
2019-05-11T02:26:58.857Z,35.80
2019-05-11T02:29:27.363Z,36.50
2019-05-11T02:31:55.842Z,34.27
2019-05-11T02:34:24.352Z,34.43
2019-05-11T02:36:54.481Z,35.33
2019-05-11T02:39:22.973Z,36.65
2019-05-11T02:41:51.457Z,35.45
2019-05-11T02:44:19.960Z,35.88
2019-05-11T02:46:48.496Z,34.73
2019-05-11T02:49:17.051Z,35.23
2019-05-11T02:51:45.813Z,33.02
2019-05-11T02:54:14.730Z,37.03
2019-05-11T02:56:43.228Z,38.65
2019-05-11T02:59:11.787Z,37.40
2019-05-11T03:01:40.283Z,39.25
2019-05-11T03:04:08.808Z,42.80
2019-05-11T03:06:37.279Z,44.18
2019-05-11T03:09:06.582Z,44.23
2019-05-11T03:11:52.798Z,45.98
2019-05-11T03:14:05.488Z,48.68
2019-05-11T03:16:33.994Z,48.33
2019-05-11T03:19:02.486Z,47.50
2019-05-11T03:21:31.056Z,44.45
2019-05-11T03:23:59.582Z,42.40
2019-05-11T03:26:28.064Z,39.33
2019-05-11T03:28:56.587Z,38.55
2019-05-11T03:31:25.097Z,36.28
2019-05-11T03:33:53.855Z,36.08
2019-05-11T03:36:22.361Z,37.28
2019-05-11T03:38:50.885Z,35.63
2019-05-11T03:41:19.399Z,37.70
2019-05-11T03:43:47.926Z,38.25
2019-05-11T03:46:16.423Z,37.17
2019-05-11T03:48:44.932Z,39.75
2019-05-11T03:51:13.429Z,36.90
2019-05-11T03:53:41.932Z,36.68
2019-05-11T03:56:10.496Z,35.13
2019-05-11T03:58:39.005Z,35.88
2019-05-11T04:01:07.494Z,35.80
2019-05-11T04:03:36.008Z,35.75
2019-05-11T04:06:04.765Z,37.25
2019-05-11T04:08:33.261Z,37.38
2019-05-11T04:11:01.746Z,39.35
2019-05-11T04:13:30.225Z,36.48
2019-05-11T04:15:58.745Z,34.27
2019-05-11T04:18:27.215Z,31.00
2019-05-11T04:20:55.706Z,33.38
2019-05-11T04:23:24.193Z,41.08
2019-05-11T04:25:52.691Z,42.35
2019-05-11T04:28:21.175Z,38.78
2019-05-11T04:30:49.678Z,41.75
2019-05-11T04:33:18.172Z,37.70
2019-05-11T04:35:46.674Z,46.60
2019-05-11T04:38:15.163Z,53.37
2019-05-11T04:40:43.690Z,35.83
2019-05-11T04:43:12.177Z,47.23
2019-05-11T04:45:40.709Z,50.23
2019-05-11T04:48:09.258Z,42.90
2019-05-11T04:50:37.772Z,39.23
2019-05-11T04:53:06.293Z,36.45
2019-05-11T04:55:34.779Z,33.87
2019-05-11T04:58:03.288Z,31.95
2019-05-11T05:00:31.842Z,28.55
2019-05-11T05:03:00.341Z,29.07
2019-05-11T05:05:28.854Z,28.07
2019-05-11T05:08:09.186Z,32.20
2019-05-11T05:10:27.594Z,32.65
2019-05-11T05:13:09.716Z,31.77
2019-05-11T05:15:27.524Z,31.42
2019-05-11T05:17:56.044Z,33.67
2019-05-11T05:20:24.532Z,31.90
2019-05-11T05:22:53.091Z,31.45
2019-05-11T05:25:21.626Z,28.90
2019-05-11T05:27:50.114Z,28.30
2019-05-11T05:31:13.200Z,29.15
2019-05-11T05:33:41.682Z,27.80
2019-05-11T05:36:10.259Z,37.03
2019-05-11T05:38:38.773Z,66.15
2019-05-11T05:41:09.141Z,177.47
2019-05-11T05:43:37.665Z,74.20
2019-05-11T05:46:06.175Z,40.28
2019-05-11T05:48:34.652Z,24.40
2019-05-11T05:51:03.239Z,22.73
2019-05-11T05:53:31.730Z,23.87
2019-05-11T05:56:00.310Z,20.37
2019-05-11T05:58:28.784Z,21.10
2019-05-11T06:00:57.364Z,21.85
2019-05-11T06:03:25.832Z,26.02
2019-05-11T06:05:54.394Z,22.65
2019-05-11T06:08:22.880Z,19.43
2019-05-11T06:10:51.389Z,19.73
2019-05-11T06:13:19.940Z,19.23
2019-05-11T06:15:48.490Z,21.85
2019-05-11T06:18:17.062Z,23.57
2019-05-11T06:20:46.542Z,44.42
2019-05-11T06:23:15.053Z,22.93
2019-05-11T06:25:43.536Z,29.10
2019-05-11T06:28:12.133Z,36.73
2019-05-11T06:30:40.690Z,37.93
2019-05-11T06:33:09.199Z,26.40
2019-05-11T06:35:37.683Z,24.63
2019-05-11T06:38:06.167Z,33.85
2019-05-11T06:40:34.695Z,26.27
2019-05-11T06:43:03.186Z,83.33
2019-05-11T06:45:31.778Z,23.73
2019-05-11T06:48:00.264Z,21.95
2019-05-11T06:50:28.768Z,27.45
2019-05-11T06:52:57.390Z,55.75
2019-05-11T06:55:25.914Z,28.45
2019-05-11T06:57:54.456Z,25.97
2019-05-11T07:00:23.263Z,48.92
2019-05-11T07:02:51.749Z,22.27
2019-05-11T07:05:20.283Z,21.23
2019-05-11T07:07:48.801Z,21.10
2019-05-11T07:10:17.423Z,21.05
2019-05-11T07:12:45.905Z,18.27
2019-05-11T07:15:14.492Z,17.43
2019-05-11T07:17:42.974Z,21.03
2019-05-11T07:20:11.854Z,45.08
2019-05-11T07:22:40.336Z,17.77
2019-05-11T07:25:09.188Z,36.17
2019-05-11T07:27:37.702Z,21.12
2019-05-11T07:30:07.502Z,27.95
2019-05-11T07:32:38.095Z,16.48
2019-05-11T07:35:08.470Z,13.20
2019-05-11T07:37:38.527Z,23.43
2019-05-11T07:40:08.553Z,11.70
2019-05-11T07:42:38.042Z,11.57
2019-05-11T07:45:09.112Z,9.23
2019-05-11T07:47:38.150Z,10.50
2019-05-11T07:50:08.548Z,23.95
2019-05-11T07:52:37.835Z,9.60
2019-05-11T07:55:08.762Z,14.75
2019-05-11T07:57:39.139Z,5.80
2019-05-11T08:00:08.241Z,12.23
2019-05-11T08:02:38.686Z,12.58
2019-05-11T08:05:08.688Z,13.40
2019-05-11T08:07:37.921Z,8.98
2019-05-11T08:10:08.443Z,12.15
2019-05-11T08:12:39.180Z,15.27
2019-05-11T08:15:12.513Z,8.68
2019-05-11T08:17:38.253Z,10.43
2019-05-11T08:20:08.587Z,11.47
2019-05-11T08:22:37.833Z,17.23
2019-05-11T08:25:09.266Z,5.90
2019-05-11T08:27:37.910Z,8.30
2019-05-11T08:30:09.589Z,7.87
2019-05-11T08:32:38.760Z,8.85
2019-05-11T08:35:08.687Z,7.65
2019-05-11T08:37:38.816Z,5.67
2019-05-11T08:40:11.648Z,15.52
2019-05-11T08:42:40.135Z,43.52
2019-05-11T08:45:19.489Z,6.25
2019-05-11T08:47:39.119Z,4.67
2019-05-11T08:50:08.290Z,4.87
2019-05-11T08:52:38.726Z,23.20
2019-05-11T08:55:08.375Z,15.60
2019-05-11T08:57:38.739Z,9.70
2019-05-11T09:00:10.284Z,7.90
2019-05-11T09:05:08.288Z,5.42
2019-05-11T09:07:38.462Z,6.60
2019-05-11T09:10:08.411Z,6.38
2019-05-11T09:12:38.236Z,5.03
2019-05-11T09:15:08.763Z,3.80
2019-05-11T09:17:38.188Z,9.70
2019-05-11T09:20:08.737Z,5.40
2019-05-11T09:22:38.087Z,3.70
2019-05-11T09:25:08.968Z,7.22
2019-05-11T09:27:37.777Z,3.50
2019-05-11T09:30:08.473Z,3.62
2019-05-11T09:32:38.519Z,11.30
2019-05-11T09:35:08.439Z,10.83
2019-05-11T09:37:38.106Z,6.90
2019-05-11T09:40:07.998Z,2.00
2019-05-11T09:42:38.644Z,3.15
2019-05-11T09:45:08.199Z,3.40
2019-05-11T09:47:38.633Z,2.23
2019-05-11T09:50:08.708Z,10.63
2019-05-11T09:52:38.478Z,12.03
2019-05-11T09:55:08.896Z,6.03
2019-05-11T09:57:38.155Z,7.42
2019-05-11T10:00:08.982Z,4.17
2019-05-11T10:02:38.482Z,5.53
2019-05-11T10:05:08.429Z,2.65
2019-05-11T10:07:38.078Z,4.50
2019-05-11T10:10:09.151Z,5.78
2019-05-11T10:12:38.182Z,3.47
2019-05-11T10:15:08.691Z,6.42
2019-05-11T10:17:38.305Z,2.87
2019-05-11T10:20:09.339Z,1.90
2019-05-11T10:22:38.575Z,2.50
2019-05-11T10:25:09.141Z,3.12
2019-05-11T10:27:38.467Z,3.80
2019-05-11T10:30:11.183Z,2.67
2019-05-11T10:32:40.565Z,1.10
2019-05-11T10:35:09.487Z,2.58
2019-05-11T10:37:38.935Z,4.17
2019-05-11T10:40:09.807Z,4.78
2019-05-11T10:42:38.317Z,6.17
2019-05-11T10:45:09.030Z,2.10
2019-05-11T10:47:38.329Z,2.58
2019-05-11T10:50:08.878Z,3.85
2019-05-11T10:52:38.017Z,15.98
2019-05-11T10:55:08.777Z,4.40
2019-05-11T10:57:38.632Z,3.22
2019-05-11T11:00:11.399Z,19.82
2019-05-11T11:02:39.885Z,6.17
2019-05-11T11:05:09.066Z,1.80
2019-05-11T11:07:38.328Z,23.67
2019-05-11T11:10:08.828Z,16.50
2019-05-11T11:12:38.518Z,5.35
2019-05-11T11:15:08.493Z,14.75
2019-05-11T11:17:38.167Z,4.43
2019-05-11T11:20:08.874Z,3.15
2019-05-11T11:22:42.999Z,23.97
2019-05-11T11:25:09.391Z,11.10
2019-05-11T11:27:38.937Z,4.17
2019-05-11T11:30:09.292Z,9.13
2019-05-11T11:32:38.410Z,3.10
2019-05-11T11:35:08.552Z,5.92
2019-05-11T11:37:38.752Z,6.87
2019-05-11T11:40:11.324Z,27.95
2019-05-11T11:42:39.822Z,16.07
2019-05-11T11:45:10.343Z,7.00
2019-05-11T11:47:38.871Z,2.90
2019-05-11T11:50:09.079Z,3.10
2019-05-11T11:52:38.339Z,3.75
2019-05-11T11:55:08.558Z,2.58
2019-05-11T11:57:38.200Z,3.20
2019-05-11T12:00:09.149Z,3.60
2019-05-11T12:02:38.814Z,11.40
2019-05-11T12:05:08.984Z,9.05
2019-05-11T12:07:38.693Z,16.85
2019-05-11T12:10:09.122Z,6.70
2019-05-11T12:12:38.640Z,9.67
2019-05-11T12:15:08.849Z,3.40
2019-05-11T12:17:37.841Z,5.03
2019-05-11T12:20:08.925Z,12.20
2019-05-11T12:22:38.622Z,5.80
2019-05-11T12:25:08.263Z,6.55
2019-05-11T12:27:38.412Z,10.72
2019-05-11T12:30:09.217Z,15.03
2019-05-11T12:32:39.346Z,1.90
2019-05-11T12:35:08.722Z,15.13
2019-05-11T12:37:37.733Z,14.13
2019-05-11T12:40:08.393Z,7.20
2019-05-11T12:42:37.967Z,7.43
2019-05-11T12:45:08.490Z,2.77
2019-05-11T12:47:38.491Z,1.40
2019-05-11T12:50:09.448Z,27.20
2019-05-11T12:52:38.402Z,8.50
2019-05-11T12:55:08.934Z,12.95
2019-05-11T12:57:38.637Z,40.20
2019-05-11T13:00:08.758Z,30.02
2019-05-11T13:02:38.854Z,26.23
2019-05-11T13:05:08.664Z,3.85
2019-05-11T13:07:39.300Z,16.82
2019-05-11T13:10:08.724Z,11.00
2019-05-11T13:12:38.577Z,7.10
2019-05-11T13:15:08.409Z,9.58
2019-05-11T13:17:40.565Z,6.15
2019-05-11T13:20:08.703Z,8.03
2019-05-11T13:22:38.259Z,8.98
2019-05-11T13:25:08.622Z,13.35
2019-05-11T13:27:38.717Z,15.83
2019-05-11T13:30:10.722Z,14.50
2019-05-11T13:32:39.240Z,25.52
2019-05-11T13:35:09.097Z,15.50
2019-05-11T13:37:38.648Z,13.98
2019-05-11T13:40:08.203Z,16.02
2019-05-11T13:42:38.577Z,24.82
2019-05-11T13:45:08.660Z,5.70
2019-05-11T13:47:49.311Z,10.68
2019-05-11T13:50:08.283Z,8.10
2019-05-11T13:52:38.573Z,11.13
2019-05-11T13:55:08.110Z,9.53
2019-05-11T13:57:38.077Z,13.62
2019-05-11T14:00:08.660Z,5.25
2019-05-11T14:02:37.942Z,9.13
2019-05-11T14:05:10.216Z,15.23
2019-05-11T14:07:38.782Z,8.33
2019-05-11T14:10:08.342Z,13.38
2019-05-11T14:12:38.512Z,12.45
2019-05-11T14:15:08.615Z,7.12
2019-05-11T14:17:38.116Z,5.08
2019-05-11T14:20:09.109Z,6.00
2019-05-11T14:22:38.765Z,9.47
2019-05-11T14:25:08.144Z,12.18
2019-05-11T14:27:39.003Z,38.63
2019-05-11T14:30:08.637Z,10.40
2019-05-11T14:32:38.823Z,6.20
2019-05-11T14:35:12.139Z,8.28
2019-05-11T14:37:38.246Z,4.00
2019-05-11T14:40:08.744Z,3.47
2019-05-11T14:42:38.250Z,3.15
2019-05-11T14:45:08.446Z,4.00
2019-05-11T14:47:38.708Z,4.10
2019-05-11T14:50:08.617Z,10.15
2019-05-11T14:52:38.829Z,9.20
2019-05-11T14:55:08.273Z,17.98
2019-05-11T14:57:39.393Z,13.45
2019-05-11T15:00:09.033Z,6.78
2019-05-11T15:02:49.309Z,4.03
2019-05-11T15:05:20.792Z,7.28
2019-05-11T15:07:52.426Z,8.00
2019-05-11T15:10:20.095Z,3.42
2019-05-11T15:12:49.043Z,5.43
2019-05-11T15:15:18.893Z,30.00
2019-05-11T15:17:49.306Z,37.10
2019-05-11T15:20:18.084Z,15.48
2019-05-11T15:22:48.659Z,46.58
2019-05-11T15:25:19.381Z,43.60
2019-05-11T15:30:18.484Z,18.40
2019-05-11T15:32:48.132Z,28.60
2019-05-11T15:35:18.643Z,19.83
2019-05-11T15:37:49.085Z,14.50
2019-05-11T15:40:19.016Z,12.20
2019-05-11T15:42:48.639Z,9.33
2019-05-11T15:45:18.814Z,5.10
2019-05-11T15:47:48.770Z,6.35
2019-05-11T15:50:19.128Z,5.60
2019-05-11T15:52:48.817Z,10.60
2019-05-11T15:55:19.047Z,12.78
2019-05-11T15:57:48.281Z,13.00
2019-05-11T16:00:18.176Z,9.70
2019-05-11T16:02:49.045Z,8.18
2019-05-11T16:05:19.372Z,7.00
2019-05-11T16:07:49.139Z,15.93
2019-05-11T16:10:19.688Z,7.28
2019-05-11T16:12:48.772Z,8.13
2019-05-11T16:15:19.458Z,11.55
2019-05-11T16:17:48.864Z,17.37
2019-05-11T16:20:18.327Z,14.15
2019-05-11T16:22:48.006Z,15.83
2019-05-11T16:25:19.295Z,15.80
2019-05-11T16:27:47.233Z,10.03
2019-05-11T16:30:20.850Z,10.10
2019-05-11T16:32:48.104Z,11.27
2019-05-11T16:35:17.958Z,11.43
2019-05-11T16:37:48.597Z,17.30
2019-05-11T16:40:20.105Z,12.60
2019-05-11T16:42:47.977Z,13.78
2019-05-11T16:45:18.974Z,7.53
2019-05-11T16:47:48.297Z,48.83
2019-05-11T16:50:18.092Z,31.17
2019-05-11T16:52:48.249Z,33.97
2019-05-11T16:55:18.374Z,25.20
2019-05-11T16:57:48.902Z,23.38
2019-05-11T17:00:17.806Z,30.80
2019-05-11T17:02:48.701Z,36.48
2019-05-11T17:05:25.820Z,15.03
2019-05-11T17:07:48.547Z,19.90
2019-05-11T17:10:17.901Z,31.52
2019-05-11T17:12:48.492Z,20.15
2019-05-11T17:15:18.691Z,22.10
2019-05-11T17:17:48.625Z,75.37
2019-05-11T17:20:18.692Z,89.28
2019-05-11T17:22:49.267Z,47.23
2019-05-11T17:25:19.188Z,39.63
2019-05-11T17:27:48.846Z,43.67
2019-05-11T17:30:19.383Z,59.25
2019-05-11T17:32:49.156Z,47.47
2019-05-11T17:35:18.545Z,32.95
2019-05-11T17:37:48.572Z,30.97
2019-05-11T17:40:20.804Z,50.28
2019-05-11T17:42:48.391Z,48.05
2019-05-11T17:45:18.985Z,59.97
2019-05-11T17:47:47.479Z,59.27
2019-05-11T17:50:16.108Z,41.25
2019-05-11T17:52:44.596Z,59.90
2019-05-11T17:55:13.227Z,70.80
2019-05-11T17:57:42.099Z,76.57
2019-05-11T18:00:11.108Z,88.12
2019-05-11T18:02:39.615Z,87.47
2019-05-11T18:05:09.120Z,93.62
2019-05-11T18:07:38.618Z,124.12
2019-05-11T18:10:08.311Z,118.95
2019-05-11T18:12:39.039Z,123.33
2019-05-11T18:15:09.358Z,114.42
2019-05-11T18:17:37.890Z,103.38
2019-05-11T18:20:16.831Z,119.72
2019-05-11T18:22:39.224Z,105.52
2019-05-11T18:25:08.972Z,113.22
2019-05-11T18:27:38.661Z,130.57
2019-05-11T18:30:09.388Z,100.44
2019-05-11T18:32:39.640Z,90.60
2019-05-11T18:35:09.136Z,92.53
2019-05-11T18:37:38.883Z,106.00
2019-05-11T18:40:08.182Z,96.82
2019-05-11T18:42:38.244Z,102.60
2019-05-11T18:45:08.254Z,109.87
2019-05-11T18:47:38.175Z,116.82
2019-05-11T18:50:07.513Z,114.88
2019-05-11T18:52:36.088Z,102.60
2019-05-11T18:55:08.432Z,94.10
2019-05-11T18:57:38.398Z,93.90
2019-05-11T19:00:09.131Z,88.17
2019-05-11T19:02:38.481Z,90.53
2019-05-11T19:05:07.473Z,102.97
2019-05-11T19:07:35.968Z,111.60
2019-05-11T19:10:08.490Z,134.95
2019-05-11T19:12:37.673Z,133.70
2019-05-11T19:15:08.819Z,107.38
2019-05-11T19:17:38.607Z,96.78
2019-05-11T19:20:08.497Z,99.17
2019-05-11T19:22:37.860Z,94.87
2019-05-11T19:25:10.186Z,119.00
2019-05-11T19:27:38.748Z,92.82
2019-05-11T19:30:08.612Z,134.80
2019-05-11T19:32:38.361Z,200.78
2019-05-11T19:35:09.071Z,176.95
2019-05-11T19:37:38.967Z,246.20
2019-05-11T19:40:09.452Z,224.35
2019-05-11T19:42:54.439Z,148.27
2019-05-11T19:45:23.317Z,148.07
2019-05-11T19:47:51.887Z,145.20
2019-05-11T19:50:20.378Z,138.45
2019-05-11T19:52:48.970Z,132.78
2019-05-11T19:55:18.155Z,135.03
2019-05-11T19:57:48.329Z,123.42
2019-05-11T20:00:18.367Z,124.35
2019-05-11T20:02:47.311Z,126.30
2019-05-11T20:05:18.167Z,148.10
2019-05-11T20:07:48.270Z,202.93
2019-05-11T20:10:18.544Z,199.07
2019-05-11T20:12:48.306Z,184.63
2019-05-11T20:15:18.843Z,189.23
2019-05-11T20:17:48.664Z,190.28
2019-05-11T20:20:18.338Z,187.07
2019-05-11T20:22:48.930Z,176.32
2019-05-11T20:25:18.669Z,166.47
2019-05-11T20:27:48.615Z,198.68
2019-05-11T20:30:18.365Z,199.45
2019-05-11T20:32:48.805Z,189.97
2019-05-11T20:35:17.861Z,180.37
2019-05-11T20:37:46.408Z,113.25
2019-05-11T20:40:15.214Z,114.55
2019-05-11T20:42:43.783Z,126.95
2019-05-11T20:45:12.547Z,136.50
2019-05-11T20:47:43.146Z,130.45
2019-05-11T20:50:11.898Z,136.60
2019-05-11T20:52:42.030Z,145.65
2019-05-11T20:55:10.829Z,143.72
2019-05-11T20:57:39.715Z,140.52
2019-05-11T21:00:10.969Z,125.47
2019-05-11T21:02:39.667Z,118.67
2019-05-11T21:05:09.367Z,136.62
2019-05-11T21:07:38.833Z,139.47
2019-05-11T21:10:08.747Z,130.50
2019-05-11T21:12:38.637Z,124.10
2019-05-11T21:15:08.973Z,122.40
2019-05-11T21:17:37.471Z,124.78
2019-05-11T21:20:10.489Z,128.38
2019-05-11T21:22:40.673Z,122.70
2019-05-11T21:25:10.399Z,126.55
2019-05-11T21:27:38.991Z,130.43
2019-05-11T21:30:11.072Z,139.72
2019-05-11T21:32:42.570Z,161.30
2019-05-11T21:35:11.307Z,174.03
2019-05-11T21:37:39.815Z,140.65
2019-05-11T21:40:10.261Z,150.95
2019-05-11T21:42:39.366Z,150.87
2019-05-11T21:45:09.769Z,197.40
2019-05-11T21:47:39.318Z,157.97
2019-05-11T21:50:09.908Z,195.95
2019-05-11T21:52:39.074Z,192.53
2019-05-11T21:55:09.668Z,201.82
2019-05-11T21:57:38.397Z,199.63
2019-05-11T22:00:09.443Z,211.55
2019-05-11T22:02:38.727Z,217.43
2019-05-11T22:05:08.499Z,212.42
2019-05-11T22:07:38.822Z,206.60
2019-05-11T22:10:09.157Z,221.47
2019-05-11T22:12:38.796Z,202.47
2019-05-11T22:15:10.181Z,203.07
2019-05-11T22:17:39.669Z,204.28
2019-05-11T22:20:09.156Z,232.80
2019-05-11T22:22:39.096Z,211.07
2019-05-11T22:25:09.158Z,211.23
2019-05-11T22:27:38.704Z,202.25
2019-05-11T22:30:12.059Z,198.17
2019-05-11T22:32:40.580Z,225.65
2019-05-11T22:35:09.468Z,232.47
2019-05-11T22:37:39.044Z,232.32
2019-05-11T22:40:09.638Z,246.00
2019-05-11T22:42:38.399Z,239.02
2019-05-11T22:45:08.435Z,236.23
2019-05-11T22:47:39.325Z,241.38
2019-05-11T22:50:10.221Z,231.88
2019-05-11T22:52:40.382Z,222.63
2019-05-11T22:55:11.961Z,206.20
2019-05-11T22:57:40.881Z,229.05
2019-05-11T23:00:10.818Z,251.95
2019-05-11T23:02:39.312Z,244.60
2019-05-11T23:05:08.837Z,204.35
2019-05-11T23:07:41.173Z,214.55
2019-05-11T23:10:10.023Z,208.87
2019-05-11T23:12:38.892Z,223.10
2019-05-11T23:15:14.799Z,218.35
2019-05-11T23:17:43.376Z,219.40
2019-05-11T23:20:12.345Z,263.57
2019-05-11T23:22:57.380Z,224.93
2019-05-11T23:25:20.295Z,211.13
2019-05-11T23:27:49.130Z,230.12
2019-05-11T23:30:20.293Z,232.35
2019-05-11T23:32:49.708Z,215.55
2019-05-11T23:35:19.078Z,200.05
2019-05-11T23:37:49.526Z,197.80
2019-05-11T23:40:18.698Z,200.20
2019-05-11T23:42:48.971Z,204.53
2019-05-11T23:45:18.870Z,163.43
2019-05-11T23:47:48.966Z,173.70
2019-05-11T23:50:19.166Z,159.32
2019-05-11T23:52:53.303Z,118.10
2019-05-11T23:55:19.214Z,115.03
2019-05-11T23:57:48.775Z,107.78
